Las Cruces International Airport
KLRU : now visible

Airfield :











YOU CAN JOIN US ON...

 
LOGIN :

Register | Disclaimer

   EN    FR    IT 

 









Legend :    VFR   Marginal VFR   IFR   Intensive IFR   Very Intensive IFR
Visi :
Ceiling :
>= 8 km
>= 3000ft
5 to 8 km
1000 to 3000 ft
1500m to 5 km
500 to 1000 ft
800 to 1500m
200 to 500 ft
< 800m
< 200 ft
Symbols :   Thunderstorms  Fog  Heavy snow  Heavy precipitations  Wind > 20 kt






- Airport Elevation : 4456 ft
- IATA code : LRU


KLRU - Las Cruces International

CURRENT METAR :
  • 241815Z AUTO 27014KT 10SM SCT070 14/01 A2983 RMK AO2 T01370006

EXPIRED METARs :
  • 241755Z AUTO 25017KT 10SM CLR 14/01 A2984 RMK AO2 T01350010 10137 21010
  • 241735Z AUTO 25013KT 10SM CLR 14/01 A2984 RMK AO2 T01360009
  • 241715Z AUTO 24012KT 10SM CLR 13/01 A2985 RMK AO2 T01300011
  • 241655Z AUTO 24011KT 10SM CLR 13/01 A2986 RMK AO2 T01250011
  • 241635Z AUTO 23005KT 10SM CLR 12/00 A2987 RMK AO2 T01170002
  • 241615Z AUTO 23004KT 10SM CLR 10/00 A2987 RMK AO2 T01040000
  • 241555Z AUTO 22003KT 10SM CLR 09/M01 A2987 RMK AO2 T00941006
  • 241535Z AUTO 28004KT 10SM CLR 08/M02 A2987 RMK AO2 T00781020

TAF KLRU
Valid from the 24 at 18:00 until the 25 at 18:00 UTC


241737Z 2418/2518 24012G24KT P6SM FEW080
FM242100 25022G32KT P6SM -SHRA SCT050 OVC080
FM250200 24020G30KT P6SM BKN080 OVC120
FM250600 24015G28KT P6SM SCT250
KZAB FIR / North America



MET'MAP, your aeronautical weather chart ! - Copyright ORBIFLY December 2007 - Disclaimer

ORBIFLY MET'MAP TEAM :

Programming & Development : Alexandra Zaïnal
Concept & original design : Baudouin d'Aumeries
Assistance for programming : Marc-Olivier Méhu
Technical & hardware support : Manuel Goepfert

Contact : metmap@orbifly.com




SOURCES & CREDITS :

   NOAA       Earth
Advisory